Time;durP1;ratioP1;P1;durP2;ratioP2;P2;SDS_P1;SDS_P2;PMS_P1;PMS_P2;Temp;Humidity;BMP_temperature;BMP_pressure;BME280_temperature;BME280_humidity;BME280_pressure;Samples;Min_cycle;Max_cycle;Signal;HPM_P1;HPM_P2
2024/01/18 00:01:47;;;;;;;4.37;2.30;;;;;;;-11.19;69.76;100050.94;4899363;29;20052;-72
2024/01/18 00:04:13;;;;;;;5.40;2.40;;;;;;;-11.12;70.42;100067.38;4912104;29;20045;-73
2024/01/18 00:06:44;;;;;;;4.30;1.80;;;;;;;-11.10;70.20;100079.34;4915889;29;20093;-72
2024/01/18 00:09:10;;;;;;;9.10;2.60;;;;;;;-11.14;69.48;100096.56;4897025;29;20068;-72
2024/01/18 00:11:36;;;;;;;4.40;2.30;;;;;;;-11.26;69.65;100072.19;4914473;29;20068;-72
2024/01/18 00:14:23;;;;;;;10.63;2.50;;;;;;;-11.34;69.37;100068.16;4916792;29;20071;-72
2024/01/18 00:16:49;;;;;;;4.83;2.57;;;;;;;-11.69;69.57;100029.31;4914447;29;20051;-72
2024/01/18 00:19:20;;;;;;;6.00;3.10;;;;;;;-11.44;69.95;100075.69;4915320;29;20064;-72
2024/01/18 00:21:46;;;;;;;5.27;2.47;;;;;;;-11.40;69.79;100083.59;4915679;29;20045;-71
2024/01/18 00:24:15;;;;;;;7.37;2.90;;;;;;;-11.52;70.08;100073.41;4911947;29;20063;-71
2024/01/18 00:26:51;;;;;;;5.90;2.77;;;;;;;-11.68;69.45;100047.78;4915309;29;20035;-71
2024/01/18 00:29:21;;;;;;;7.70;3.37;;;;;;;-11.60;69.34;100071.03;4900078;29;20044;-71
2024/01/18 00:31:50;;;;;;;7.10;2.87;;;;;;;-11.43;70.24;100095.03;4910170;29;20048;-72
2024/01/18 00:34:15;;;;;;;5.97;2.93;;;;;;;-12.01;69.89;100004.06;4915202;29;20056;-72
2024/01/18 00:36:51;;;;;;;7.57;2.83;;;;;;;-11.63;69.86;100075.78;4931542;29;20044;-72
2024/01/18 00:39:19;;;;;;;5.60;2.33;;;;;;;-11.50;70.24;100094.53;4931435;29;20091;-73
2024/01/18 00:41:54;;;;;;;5.73;1.70;;;;;;;-11.48;70.42;100096.28;4918044;29;20498;-72
2024/01/18 00:44:25;;;;;;;9.00;2.80;;;;;;;-11.65;70.05;100081.56;4918031;29;20036;-73
2024/01/18 00:46:52;;;;;;;4.93;2.23;;;;;;;-11.68;69.76;100073.75;4903952;29;20035;-72
2024/01/18 00:49:18;;;;;;;3.63;2.40;;;;;;;-11.76;70.05;100049.66;4935448;29;20043;-73
2024/01/18 00:51:49;;;;;;;4.60;2.40;;;;;;;-11.60;70.01;100081.97;4938413;29;20062;-72
2024/01/18 00:54:15;;;;;;;7.55;2.53;;;;;;;-11.48;70.00;100101.31;4918907;29;20135;-72
2024/01/18 00:57:05;;;;;;;8.63;3.00;;;;;;;-11.62;70.15;100078.44;4920291;29;20040;-71
2024/01/18 00:59:34;;;;;;;5.73;1.83;;;;;;;-11.69;69.69;100081.19;4920148;29;20082;-75
2024/01/18 01:02:00;;;;;;;6.90;2.90;;;;;;;-11.52;69.80;100111.09;4917603;29;20048;-76
2024/01/18 01:04:31;;;;;;;7.83;3.10;;;;;;;-11.52;69.02;100116.13;4888958;29;20043;-74
2024/01/18 01:07:01;;;;;;;5.20;2.70;;;;;;;-11.55;69.50;100109.97;4891316;29;20047;-76
2024/01/18 01:09:28;;;;;;;5.67;2.63;;;;;;;-11.57;69.02;100114.84;4933049;29;20047;-76
2024/01/18 01:11:59;;;;;;;5.47;2.67;;;;;;;-11.67;69.60;100110.69;4900446;29;20051;-76
2024/01/18 01:14:28;;;;;;;5.33;2.30;;;;;;;-11.66;69.66;100130.03;4914835;29;20051;-73
2024/01/18 01:17:14;;;;;;;5.33;2.40;;;;;;;-11.73;69.41;100109.28;4907338;29;20047;-72
2024/01/18 01:19:45;;;;;;;6.23;2.37;;;;;;;-11.63;69.30;100138.56;4918087;29;20047;-70
2024/01/18 01:22:34;;;;;;;4.67;2.07;;;;;;;-11.75;69.94;100130.88;4896262;29;20043;-69
2024/01/18 01:25:21;;;;;;;5.17;2.20;;;;;;;-11.91;69.06;100114.50;4915375;29;20040;-70
2024/01/18 01:27:50;;;;;;;5.60;2.17;;;;;;;-11.90;69.91;100108.75;4904844;29;20214;-72
2024/01/18 01:30:16;;;;;;;6.77;2.43;;;;;;;-12.09;69.15;100097.91;4903501;29;20088;-70
2024/01/18 01:32:45;;;;;;;4.67;1.97;;;;;;;-11.90;68.73;100128.84;4900284;29;20035;-72
2024/01/18 01:35:16;;;;;;;6.30;2.60;;;;;;;-11.96;69.65;100113.22;4919380;29;20063;-72
2024/01/18 01:37:42;;;;;;;5.07;2.47;;;;;;;-12.22;69.36;100088.47;4916986;29;20712;-71
2024/01/18 01:40:08;;;;;;;6.70;2.43;;;;;;;-12.01;68.87;100127.94;4910082;29;20043;-70
2024/01/18 01:42:40;;;;;;;5.53;2.03;;;;;;;-12.17;69.11;100100.63;4909771;29;20193;-71
2024/01/18 01:45:09;;;;;;;6.67;2.63;;;;;;;-11.97;69.34;100124.91;4888859;29;20046;-72
2024/01/18 01:47:50;;;;;;;7.27;2.40;;;;;;;-11.99;69.13;100133.97;4903353;29;20044;-71
2024/01/18 01:50:16;;;;;;;7.60;2.17;;;;;;;-11.90;69.60;100137.97;4915717;29;20143;-71
2024/01/18 01:52:46;;;;;;;5.40;2.37;;;;;;;-12.03;69.30;100123.56;4917863;29;20040;-71
2024/01/18 01:55:13;;;;;;;6.70;2.23;;;;;;;-11.90;68.97;100148.03;4901850;29;20147;-72
2024/01/18 01:57:45;;;;;;;4.47;2.13;;;;;;;-12.00;68.67;100134.72;4903595;29;20055;-73
2024/01/18 02:00:16;;;;;;;3.47;2.00;;;;;;;-12.17;68.53;100107.31;4933716;29;20048;-71
2024/01/18 02:02:44;;;;;;;5.27;2.10;;;;;;;-12.26;68.62;100114.91;4887615;29;20047;-73
2024/01/18 02:05:19;;;;;;;3.43;1.80;;;;;;;-12.23;68.50;100140.25;4931312;29;20419;-73
2024/01/18 02:07:48;;;;;;;6.77;2.23;;;;;;;-12.13;68.87;100157.88;4912783;29;20032;-73
2024/01/18 02:10:16;;;;;;;;;;;;;;;-12.08;68.77;100144.84;4903338;29;20466;-73
2024/01/18 02:12:51;;;;;;;5.40;2.30;;;;;;;-12.19;69.04;100119.69;4930046;29;19969;-73
2024/01/18 02:15:18;;;;;;;5.43;1.93;;;;;;;-12.27;68.01;100110.66;4878159;29;20048;-73
2024/01/18 02:17:47;;;;;;;4.30;2.20;;;;;;;-12.65;67.98;100081.47;4916656;29;20073;-73
2024/01/18 02:20:16;;;;;;;6.40;2.30;;;;;;;-12.37;68.27;100130.66;4916874;29;20427;-73
2024/01/18 02:22:51;;;;;;;6.87;2.70;;;;;;;-12.81;68.47;100045.78;4916476;29;20124;-73
2024/01/18 02:25:28;;;;;;;5.77;1.50;;;;;;;-12.15;68.53;100123.38;4933198;29;20098;-72
2024/01/18 02:28:16;;;;;;;7.57;3.10;;;;;;;-12.03;69.04;100129.44;4920885;29;20036;-72
2024/01/18 02:30:44;;;;;;;5.53;2.03;;;;;;;-12.14;68.64;100110.09;4887959;29;20049;-70
2024/01/18 02:33:18;;;;;;;8.97;2.77;;;;;;;-12.14;68.67;100115.09;4914826;29;20482;-71
2024/01/18 02:35:44;;;;;;;4.97;2.50;;;;;;;-12.17;68.18;100118.22;4917909;29;20044;-71
2024/01/18 02:38:14;;;;;;;6.13;2.67;;;;;;;-12.30;67.99;100117.91;4915550;29;20099;-71
2024/01/18 02:40:45;;;;;;;6.27;2.67;;;;;;;-12.27;68.46;100130.72;4931232;29;20044;-71
2024/01/18 02:43:14;;;;;;;6.03;2.60;;;;;;;-12.37;68.56;100108.97;4904592;29;20103;-72
2024/01/18 02:45:48;;;;;;;6.77;2.97;;;;;;;-13.37;67.87;99971.66;4893362;29;20050;-73
2024/01/18 02:48:19;;;;;;;6.00;2.80;;;;;;;-13.02;68.13;100026.47;4919432;29;20040;-71
2024/01/18 02:50:54;;;;;;;8.50;2.27;;;;;;;-12.68;68.52;100083.72;4900012;29;20126;-72
2024/01/18 02:53:20;;;;;;;6.13;2.80;;;;;;;-12.40;68.90;100131.28;4909156;29;20043;-71
2024/01/18 02:56:05;;;;;;;6.83;1.90;;;;;;;-12.89;68.31;100042.56;4908475;29;20075;-73
2024/01/18 02:58:33;;;;;;;3.80;1.90;;;;;;;-12.38;68.12;100134.81;4920455;29;20059;-71
2024/01/18 03:00:59;;;;;;;6.47;2.70;;;;;;;-12.46;68.43;100139.13;4922765;29;20054;-70
2024/01/18 03:03:31;;;;;;;4.73;2.40;;;;;;;-12.50;67.96;100139.63;4914679;29;20143;-72
2024/01/18 03:06:00;;;;;;;8.80;3.38;;;;;;;-12.56;67.63;100147.47;4902139;29;20135;-71
2024/01/18 03:08:26;;;;;;;10.83;3.90;;;;;;;-12.61;67.97;100146.19;4920680;29;20047;-70
2024/01/18 03:10:55;;;;;;;4.87;2.60;;;;;;;-12.98;67.31;100097.78;4933768;29;20134;-71
2024/01/18 03:13:24;;;;;;;6.80;3.07;;;;;;;-12.84;67.45;100116.56;4935901;29;20044;-74
2024/01/18 03:15:50;;;;;;;9.60;3.50;;;;;;;-12.76;67.77;100128.16;4907016;29;20044;-72
2024/01/18 03:18:18;;;;;;;7.03;3.23;;;;;;;-12.80;68.00;100097.69;4918370;29;20047;-72
2024/01/18 03:20:47;;;;;;;5.57;2.50;;;;;;;-13.15;66.90;100060.31;4936627;29;20483;-72
2024/01/18 03:23:25;;;;;;;5.13;2.43;;;;;;;-13.14;67.55;100069.59;4918824;29;20068;-72
2024/01/18 03:25:54;;;;;;;7.10;2.45;;;;;;;-12.98;67.66;100082.75;4905637;29;20502;-72
2024/01/18 03:28:28;;;;;;;6.93;2.53;;;;;;;-12.94;67.65;100086.44;4888518;29;20042;-71
2024/01/18 03:30:54;;;;;;;5.37;2.70;;;;;;;-13.07;67.81;100067.78;4921760;29;20036;-72
2024/01/18 03:33:20;;;;;;;5.57;2.10;;;;;;;-12.81;67.48;100123.50;4889750;29;20044;-72
2024/01/18 03:35:50;;;;;;;4.87;1.93;;;;;;;-12.89;67.93;100103.63;4917315;29;20052;-72
2024/01/18 03:38:16;;;;;;;6.70;2.17;;;;;;;-12.89;67.37;100087.69;4919670;29;20055;-70
2024/01/18 03:40:56;;;;;;;5.27;2.07;;;;;;;-13.11;67.96;100044.84;4888551;29;20056;-70
2024/01/18 03:43:25;;;;;;;6.47;2.27;;;;;;;-12.75;67.77;100106.47;4903568;29;20072;-72
2024/01/18 03:45:51;;;;;;;4.83;1.90;;;;;;;-12.78;67.31;100116.22;4915115;29;20044;-71
2024/01/18 03:48:23;;;;;;;4.30;2.07;;;;;;;-12.87;67.36;100111.28;4889065;29;20052;-71
2024/01/18 03:50:49;;;;;;;4.93;1.77;;;;;;;-13.52;67.22;100013.75;4918812;29;20051;-73
2024/01/18 03:53:18;;;;;;;5.27;2.00;;;;;;;-13.03;67.78;100114.06;4903554;29;20063;-72
2024/01/18 03:55:44;;;;;;;6.40;2.10;;;;;;;-13.21;67.89;100063.19;4901517;29;20072;-72
2024/01/18 03:58:11;;;;;;;7.43;2.33;;;;;;;-12.88;67.26;100127.06;4895889;29;20515;-72
2024/01/18 04:00:42;;;;;;;7.73;2.50;;;;;;;-13.28;67.22;100058.34;4926948;29;20040;-70
2024/01/18 04:03:09;;;;;;;4.57;2.23;;;;;;;-12.91;67.32;100129.31;4914537;29;20056;-71
2024/01/18 04:05:38;;;;;;;5.17;1.80;;;;;;;-12.96;67.37;100116.34;4916199;29;20044;-71
2024/01/18 04:08:07;;;;;;;5.33;2.13;;;;;;;-12.93;67.75;100121.63;4916424;29;20071;-71
2024/01/18 04:10:35;;;;;;;6.00;2.33;;;;;;;-12.84;68.19;100121.56;4912787;29;20496;-71
2024/01/18 04:13:04;;;;;;;5.73;2.27;;;;;;;-13.17;66.61;100105.31;4912697;29;20048;-70
2024/01/18 04:15:30;;;;;;;2.47;1.40;;;;;;;-13.32;66.57;100089.75;4900684;29;20044;-70
2024/01/18 04:18:07;;;;;;;5.60;2.00;;;;;;;-13.29;67.58;100086.63;4918073;29;20140;-71
2024/01/18 04:20:33;;;;;;;7.40;2.00;;;;;;;-13.08;68.03;100096.09;4913953;29;20059;-71
2024/01/18 04:23:01;;;;;;;5.80;1.80;;;;;;;-13.15;67.71;100070.34;4901912;29;20127;-72
2024/01/18 04:25:27;;;;;;;4.13;1.87;;;;;;;-13.65;67.75;99983.34;4911852;29;20055;-67
2024/01/18 04:27:57;;;;;;;4.20;2.40;;;;;;;-12.96;68.06;100091.28;4914675;29;20511;-70
2024/01/18 04:30:33;;;;;;;3.50;1.70;;;;;;;-13.25;66.66;100068.66;4915116;29;20052;-70
2024/01/18 04:33:13;;;;;;;2.37;1.00;;;;;;;-13.63;67.30;100042.84;4889619;29;20058;-72
2024/01/18 04:35:42;;;;;;;4.35;2.22;;;;;;;-13.30;67.99;100072.34;4899734;29;20092;-70
2024/01/18 04:38:08;;;;;;;4.97;2.10;;;;;;;-13.20;67.57;100083.34;4911199;29;20055;-69
2024/01/18 04:40:34;;;;;;;5.57;2.60;;;;;;;-13.57;67.47;100049.16;4911851;29;20051;-70
2024/01/18 04:43:01;;;;;;;7.23;2.13;;;;;;;-13.56;66.96;100054.28;4901985;29;20051;-69
2024/01/18 04:45:30;;;;;;;3.10;1.63;;;;;;;-13.54;67.90;100049.41;4911072;29;20073;-73
2024/01/18 04:48:00;;;;;;;7.73;2.13;;;;;;;-13.07;68.40;100097.84;4915443;29;20145;-71
2024/01/18 04:50:29;;;;;;;6.70;2.60;;;;;;;-13.11;68.49;100064.88;4917323;29;20512;-69
2024/01/18 04:52:58;;;;;;;6.73;2.70;;;;;;;-12.85;68.36;100097.25;4910007;29;20077;-70
2024/01/18 04:55:35;;;;;;;6.13;2.30;;;;;;;-12.78;68.44;100097.06;4916547;29;20064;-70
2024/01/18 04:58:10;;;;;;;5.03;2.00;;;;;;;-12.75;68.04;100091.44;4918981;29;20044;-68
2024/01/18 05:00:43;;;;;;;4.88;2.25;;;;;;;-13.33;67.42;99991.19;4916361;29;20072;-70
2024/01/18 05:03:28;;;;;;;4.23;2.20;;;;;;;-12.82;68.76;100064.94;4888479;29;20072;-68
2024/01/18 05:05:57;;;;;;;6.20;2.80;;;;;;;-12.74;68.34;100063.09;4886019;29;20099;-70
2024/01/18 05:08:24;;;;;;;7.80;2.83;;;;;;;-12.62;68.36;100060.78;4899164;29;20044;-70
2024/01/18 05:10:54;;;;;;;8.03;2.87;;;;;;;-12.96;68.34;99975.13;4900229;29;20531;-69
2024/01/18 05:13:21;;;;;;;4.43;2.40;;;;;;;-12.56;68.14;100053.81;4895812;29;20055;-70
2024/01/18 05:18:35;;;;;;;5.07;2.20;;;;;;;-13.47;67.67;99954.06;4913957;29;20610;-69
2024/01/18 05:21:04;;;;;;;4.83;2.27;;;;;;;-12.98;67.75;100016.72;4900584;29;20041;-70
2024/01/18 05:23:30;;;;;;;4.83;2.83;;;;;;;-12.89;67.87;100040.06;4916987;29;20611;-70
2024/01/18 05:26:02;;;;;;;9.77;2.50;;;;;;;-13.16;67.49;100016.88;4886595;29;20040;-69
2024/01/18 05:28:35;;;;;;;9.57;3.53;;;;;;;-13.05;68.31;100017.81;4913136;29;20317;-72
2024/01/18 05:31:01;;;;;;;7.40;3.60;;;;;;;-12.99;67.68;100040.88;4899746;29;20058;-71
2024/01/18 05:33:28;;;;;;;7.47;3.07;;;;;;;-13.11;67.83;100015.63;4917244;29;20040;-70
2024/01/18 05:35:54;;;;;;;10.97;3.20;;;;;;;-13.30;67.52;99987.19;4911365;29;20076;-70
2024/01/18 05:38:20;;;;;;;12.13;5.23;;;;;;;-12.95;68.40;100032.91;4913789;29;20060;-69
2024/01/18 05:40:56;;;;;;;15.00;5.23;;;;;;;-12.71;69.01;100023.25;4897061;29;20526;-69
2024/01/18 05:43:22;;;;;;;12.00;4.80;;;;;;;-12.59;68.81;100016.81;4914835;29;20036;-70
2024/01/18 05:45:51;;;;;;;8.03;3.13;;;;;;;-12.54;68.10;100042.28;4885269;29;20051;-70
2024/01/18 05:48:21;;;;;;;6.53;2.13;;;;;;;-12.98;67.17;100019.22;4914645;29;20079;-70
2024/01/18 05:50:47;;;;;;;7.23;2.53;;;;;;;-13.46;67.00;99983.38;4914379;29;20032;-71
2024/01/18 05:53:14;;;;;;;5.50;2.47;;;;;;;-13.37;67.18;100015.81;4915364;29;20101;-70
2024/01/18 05:55:43;;;;;;;6.93;2.77;;;;;;;-13.85;67.53;99972.41;4913861;29;20134;-70
2024/01/18 05:58:24;;;;;;;5.20;2.30;;;;;;;-13.49;67.17;100031.56;4910806;29;20070;-70
2024/01/18 06:00:52;;;;;;;5.23;3.00;;;;;;;-14.11;67.45;99947.53;4889387;29;20492;-71
2024/01/18 06:03:53;;;;;;;6.93;2.70;;;;;;;-13.67;67.82;100014.84;4900645;29;20059;-70
2024/01/18 06:06:21;;;;;;;9.50;3.47;;;;;;;-13.88;68.35;99973.75;4918901;29;20070;-71
2024/01/18 06:08:54;;;;;;;;;;;;;;;-13.65;68.04;100014.28;4884382;29;20045;-72
2024/01/18 06:11:20;;;;;;;6.30;2.57;;;;;;;-14.01;67.70;99956.75;4916680;29;19919;-70
2024/01/18 06:13:45;;;;;;;9.13;3.27;;;;;;;-14.12;68.17;99933.28;4912343;29;20112;-70
2024/01/18 06:16:15;;;;;;;4.70;2.13;;;;;;;-13.87;67.68;99966.38;4899367;29;20103;-71
2024/01/18 06:18:48;;;;;;;8.07;2.40;;;;;;;-13.70;67.82;99977.94;4897703;29;20460;-71
2024/01/18 06:21:14;;;;;;;6.77;2.90;;;;;;;-13.66;68.42;99962.44;4909251;29;20614;-70
2024/01/18 06:23:41;;;;;;;4.50;2.23;;;;;;;-13.54;68.74;99937.63;4909024;29;20051;-71
2024/01/18 06:26:11;;;;;;;4.80;2.30;;;;;;;-13.19;68.22;99969.00;4916117;29;20097;-70
2024/01/18 06:28:41;;;;;;;3.20;1.80;;;;;;;-13.32;68.78;99927.81;4914156;29;20044;-70
2024/01/18 06:31:14;;;;;;;4.60;2.63;;;;;;;-13.17;69.13;99922.41;4885417;29;20134;-69
2024/01/18 06:33:45;;;;;;;7.03;2.50;;;;;;;-12.87;69.59;99921.69;4916101;29;20142;-69
2024/01/18 06:36:22;;;;;;;6.03;2.70;;;;;;;-12.58;69.33;99924.91;4912824;29;20116;-65
2024/01/18 06:38:49;;;;;;;6.53;3.28;;;;;;;-12.62;69.50;99917.84;4902398;29;20044;-69
2024/01/18 06:41:25;;;;;;;5.93;2.53;;;;;;;-12.40;69.16;99930.59;4907616;29;20606;-66
2024/01/18 06:43:54;;;;;;;5.40;2.57;;;;;;;-12.49;69.60;99900.59;4898962;29;20072;-66
2024/01/18 06:46:22;;;;;;;3.70;2.47;;;;;;;-12.53;68.57;99913.63;4891441;29;20100;-68
2024/01/18 06:48:56;;;;;;;6.00;2.50;;;;;;;-12.46;69.25;99918.41;4912462;29;20040;-67
2024/01/18 06:51:29;;;;;;;4.33;2.43;;;;;;;-12.43;68.56;99875.16;4901503;29;20662;-67
2024/01/18 06:53:55;;;;;;;4.30;2.40;;;;;;;-12.07;69.03;99905.69;4912897;29;20047;-67
2024/01/18 06:56:21;;;;;;;7.03;2.70;;;;;;;-12.36;68.47;99853.97;4910724;29;20060;-66
2024/01/18 06:58:50;;;;;;;7.73;3.00;;;;;;;-11.97;69.33;99898.09;4911964;29;20065;-67
2024/01/18 07:01:17;;;;;;;6.10;2.77;;;;;;;-12.05;69.32;99874.06;4916677;29;20036;-67
2024/01/18 07:03:43;;;;;;;3.57;1.60;;;;;;;-11.86;69.72;99889.84;4913997;29;20069;-67
2024/01/18 07:06:09;;;;;;;7.33;2.57;;;;;;;-11.66;70.39;99866.31;4912155;29;20036;-68
2024/01/18 07:08:39;;;;;;;7.40;2.83;;;;;;;-11.86;68.96;99827.06;4881225;29;20107;-67
2024/01/18 07:11:05;;;;;;;11.83;2.67;;;;;;;-11.88;68.85;99843.66;4897458;29;20044;-67
2024/01/18 07:13:34;;;;;;;5.53;2.10;;;;;;;-11.82;69.37;99850.78;4898603;29;20069;-68
2024/01/18 07:16:03;;;;;;;4.73;2.40;;;;;;;-11.63;68.84;99877.38;4911726;29;20132;-68
2024/01/18 07:18:29;;;;;;;5.57;2.83;;;;;;;-11.61;69.29;99858.28;4909138;29;20500;-68
2024/01/18 07:20:55;;;;;;;3.73;2.30;;;;;;;-11.46;69.29;99862.00;4909786;29;20041;-68
2024/01/18 07:23:31;;;;;;;7.33;2.37;;;;;;;-11.58;69.24;99839.31;4907730;29;20044;-69
2024/01/18 07:25:58;;;;;;;6.10;2.43;;;;;;;-11.43;69.39;99861.41;4860126;29;20035;-66
2024/01/18 07:28:32;;;;;;;6.73;2.70;;;;;;;-11.62;69.95;99812.22;4911780;29;20481;-68
2024/01/18 07:31:00;;;;;;;7.30;2.75;;;;;;;-11.29;70.27;99833.19;4911487;29;20188;-68
2024/01/18 07:33:26;;;;;;;6.23;3.07;;;;;;;-11.23;69.41;99807.66;4912342;29;20047;-68
2024/01/18 07:35:53;;;;;;;9.90;3.37;;;;;;;-11.32;70.00;99809.47;4909890;29;21777;-69
2024/01/18 07:38:19;;;;;;;7.83;3.50;;;;;;;-11.16;69.65;99834.16;4897545;29;20056;-69
2024/01/18 07:41:18;;;;;;;10.10;3.43;;;;;;;-11.00;69.88;99832.09;4914643;29;20107;-70
2024/01/18 07:44:09;;;;;;;6.73;2.90;;;;;;;-11.22;70.46;99781.78;4885673;29;20071;-69
2024/01/18 07:46:44;;;;;;;5.97;2.73;;;;;;;-11.11;70.07;99775.94;4886660;29;20043;-68
2024/01/18 07:49:14;;;;;;;6.97;2.93;;;;;;;-10.61;69.63;99848.47;4899280;29;20070;-67
2024/01/18 07:51:40;;;;;;;8.60;2.97;;;;;;;-10.46;70.03;99857.91;4911549;29;20044;-66
2024/01/18 07:54:15;;;;;;;4.65;2.45;;;;;;;-10.53;69.15;99840.63;4908242;29;20048;-67
2024/01/18 07:56:41;;;;;;;7.13;3.47;;;;;;;-10.42;70.65;99861.56;4907845;29;20040;-68
2024/01/18 07:59:13;;;;;;;9.90;3.60;;;;;;;-10.49;69.57;99868.66;4892920;29;20048;-72
2024/01/18 08:01:50;;;;;;;6.05;2.83;;;;;;;-10.63;70.04;99834.88;4904916;29;20079;-72
2024/01/18 08:04:25;;;;;;;7.07;3.23;;;;;;;-10.50;70.06;99861.00;4903932;29;20262;-72
2024/01/18 08:06:57;;;;;;;9.65;3.22;;;;;;;-10.56;70.38;99865.56;4903966;29;20040;-68
2024/01/18 08:09:23;;;;;;;5.57;2.67;;;;;;;-10.50;70.48;99850.94;4896485;29;20101;-71
2024/01/18 08:12:09;;;;;;;5.53;2.80;;;;;;;-10.26;70.96;99848.47;4922290;29;20048;-74
2024/01/18 08:14:43;;;;;;;4.97;2.30;;;;;;;-10.46;70.68;99833.66;4902626;29;20029;-70
2024/01/18 08:17:16;;;;;;;5.37;2.47;;;;;;;-10.31;70.43;99854.03;4907972;29;20048;-71
2024/01/18 08:19:45;;;;;;;4.07;2.10;;;;;;;-10.51;70.06;99834.94;4916390;29;20096;-68
2024/01/18 08:22:18;;;;;;;6.77;2.43;;;;;;;-10.82;70.48;99768.88;4899673;29;20056;-69
2024/01/18 08:25:54;;;;;;;4.80;2.40;;;;;;;-10.42;70.80;99802.03;4904061;29;20053;-69
2024/01/18 08:28:45;;;;;;;5.17;2.07;;;;;;;-10.24;70.65;99809.16;4915009;29;20051;-71
2024/01/18 08:31:11;;;;;;;4.32;2.70;;;;;;;-9.98;72.01;99813.63;4914184;29;20051;-71
2024/01/18 08:33:56;;;;;;;6.45;2.45;;;;;;;-9.77;71.17;99861.28;4908551;29;20045;-70
2024/01/18 08:36:31;;;;;;;3.53;1.97;;;;;;;-10.33;70.97;99752.38;4903082;29;20040;-69
2024/01/18 08:39:00;;;;;;;6.03;2.17;;;;;;;-9.88;71.43;99815.16;4932047;29;20399;-71
2024/01/18 08:41:29;;;;;;;4.40;2.67;;;;;;;-10.06;72.33;99719.91;4903441;29;20159;-71
2024/01/18 08:44:02;;;;;;;5.28;2.38;;;;;;;-9.32;71.39;99796.41;4916660;29;20022;-74
2024/01/18 08:46:28;;;;;;;4.72;2.60;;;;;;;-9.27;72.26;99752.25;4917215;29;20036;-73
2024/01/18 08:48:54;;;;;;;4.82;1.63;;;;;;;-9.21;71.16;99762.75;4900986;29;20032;-72
2024/01/18 08:51:21;;;;;;;4.82;2.42;;;;;;;-9.40;71.12;99770.66;4920649;29;20187;-74
2024/01/18 08:53:47;;;;;;;3.25;1.73;;;;;;;-9.29;71.62;99766.38;4894613;29;20035;-75
2024/01/18 08:56:13;;;;;;;3.67;1.88;;;;;;;-9.60;71.67;99701.25;4917494;29;20085;-72
2024/01/18 08:58:39;;;;;;;3.88;1.67;;;;;;;-9.53;71.57;99673.19;4919296;29;20044;-73
2024/01/18 09:01:06;;;;;;;5.65;2.40;;;;;;;-9.14;72.41;99711.97;4900776;29;20041;-75
2024/01/18 09:03:32;;;;;;;4.97;1.80;;;;;;;-9.23;71.21;99687.00;4903987;29;20043;-74
2024/01/18 09:06:00;;;;;;;4.53;1.90;;;;;;;-9.26;72.05;99691.81;4917434;29;20076;-70
2024/01/18 09:08:46;;;;;;;3.90;2.10;;;;;;;-8.97;71.81;99729.91;4918594;29;20063;-72
2024/01/18 09:11:18;;;;;;;3.13;1.50;;;;;;;-8.90;71.61;99711.88;4919788;29;20108;-72
2024/01/18 09:13:44;;;;;;;4.15;1.95;;;;;;;-8.97;72.54;99671.91;4919997;29;20061;-68
2024/01/18 09:16:16;;;;;;;3.78;2.10;;;;;;;-8.72;72.38;99679.44;4898289;29;20138;-70
2024/01/18 09:18:43;;;;;;;2.75;1.08;;;;;;;-8.73;71.62;99692.81;4913528;29;20044;-69
2024/01/18 09:21:12;;;;;;;3.95;2.03;;;;;;;-8.99;71.83;99673.44;4895799;29;20059;-67
2024/01/18 09:23:38;;;;;;;4.68;1.75;;;;;;;-9.15;71.79;99621.97;4883630;29;20044;-68
2024/01/18 09:26:08;;;;;;;2.72;1.63;;;;;;;-9.02;72.01;99623.66;4898397;29;20112;-67
2024/01/18 09:28:45;;;;;;;3.28;1.52;;;;;;;-8.85;72.18;99637.38;4903217;29;20111;-68
2024/01/18 09:31:14;;;;;;;3.63;1.95;;;;;;;-9.42;72.03;99527.75;4883989;29;20138;-66
2024/01/18 09:33:41;;;;;;;6.65;1.70;;;;;;;-9.92;71.75;99443.84;4916592;29;20041;-74
2024/01/18 09:36:07;;;;;;;2.45;1.50;;;;;;;-8.90;72.77;99568.09;4902419;29;20052;-68
2024/01/18 09:38:40;;;;;;;5.10;1.90;;;;;;;-8.86;72.53;99544.81;4916753;29;20043;-71
2024/01/18 09:41:07;;;;;;;4.10;1.80;;;;;;;-8.69;73.13;99514.75;4917254;29;20046;-73
2024/01/18 09:43:41;;;;;;;2.47;1.50;;;;;;;-8.66;72.72;99527.56;4915965;29;20068;-72
2024/01/18 09:46:12;;;;;;;3.13;1.75;;;;;;;-8.86;72.08;99491.00;4899188;29;20055;-73
2024/01/18 09:48:39;;;;;;;3.42;1.95;;;;;;;-8.46;72.94;99548.97;4904123;29;20055;-69
2024/01/18 09:51:09;;;;;;;3.30;1.38;;;;;;;-8.60;71.87;99537.19;4888428;29;20052;-70
2024/01/18 09:53:44;;;;;;;2.67;1.65;;;;;;;-8.59;72.08;99546.47;4885112;29;20104;-68
2024/01/18 09:56:21;;;;;;;2.65;1.63;;;;;;;-8.76;72.71;99540.38;4916268;29;20048;-70
2024/01/18 09:58:57;;;;;;;3.45;1.80;;;;;;;-8.68;72.78;99535.03;4911080;29;20051;-67
2024/01/18 10:01:26;;;;;;;4.50;1.73;;;;;;;-8.84;72.99;99507.97;4910929;29;20078;-66
2024/01/18 10:03:53;;;;;;;3.10;1.52;;;;;;;-8.96;71.95;99472.75;4899032;29;20091;-69
2024/01/18 10:06:20;;;;;;;2.17;1.35;;;;;;;-9.06;72.98;99449.34;4902712;29;20051;-67
2024/01/18 10:08:48;;;;;;;2.63;1.27;;;;;;;-9.10;72.79;99423.09;4912202;29;20053;-65
2024/01/18 10:11:17;;;;;;;2.90;1.52;;;;;;;-8.88;72.27;99490.88;4914176;29;20048;-67
2024/01/18 10:13:55;;;;;;;2.30;1.20;;;;;;;-8.81;72.79;99457.72;4911317;29;20140;-66
2024/01/18 10:16:29;;;;;;;3.17;1.77;;;;;;;-8.45;73.26;99499.34;4898676;29;20044;-67
2024/01/18 10:19:02;;;;;;;2.75;1.67;;;;;;;-8.41;73.54;99481.09;4884972;29;20053;-66
2024/01/18 10:21:29;;;;;;;3.65;2.03;;;;;;;-8.75;72.70;99421.03;4898402;29;20040;-66
2024/01/18 10:23:56;;;;;;;3.00;1.50;;;;;;;-8.67;72.29;99451.00;4894787;29;20111;-66
2024/01/18 10:26:22;;;;;;;4.30;1.65;;;;;;;-8.77;72.74;99415.88;4897025;29;20048;-65
2024/01/18 10:28:48;;;;;;;2.58;1.40;;;;;;;-8.95;72.37;99416.47;4899260;29;20155;-66
2024/01/18 10:31:14;;;;;;;2.40;1.80;;;;;;;-8.82;72.90;99410.56;4897967;29;20072;-66
2024/01/18 10:33:41;;;;;;;2.55;1.48;;;;;;;-8.96;72.91;99369.34;4899414;29;20566;-68
2024/01/18 10:36:07;;;;;;;2.22;1.60;;;;;;;-8.93;72.88;99348.47;4897138;29;20048;-66
2024/01/18 10:38:33;;;;;;;4.25;1.85;;;;;;;-8.70;72.82;99379.28;4899651;29;20052;-67
2024/01/18 10:41:00;;;;;;;3.78;1.70;;;;;;;-8.42;73.21;99409.56;4899936;29;20040;-66
2024/01/18 10:43:33;;;;;;;4.47;1.90;;;;;;;-8.47;73.10;99375.59;4897662;29;20055;-67
2024/01/18 10:45:59;;;;;;;2.10;1.50;;;;;;;-8.44;73.71;99363.16;4898578;29;20390;-69
2024/01/18 10:48:26;;;;;;;2.90;1.27;;;;;;;-8.46;72.80;99352.09;4906869;29;20103;-68
2024/01/18 10:50:55;;;;;;;2.15;1.70;;;;;;;-8.34;73.04;99364.59;4909694;29;20040;-69
2024/01/18 10:53:34;;;;;;;3.65;1.70;;;;;;;-8.28;73.30;99364.06;4917379;29;20178;-67
2024/01/18 10:56:03;;;;;;;6.72;1.75;;;;;;;-8.72;73.21;99265.66;4926990;29;20051;-71
2024/01/18 10:58:31;;;;;;;4.45;1.77;;;;;;;-8.51;72.20;99340.88;4923116;29;20056;-71
2024/01/18 11:00:58;;;;;;;3.35;1.73;;;;;;;-8.45;73.00;99343.75;4917800;29;20044;-68
2024/01/18 11:03:30;;;;;;;4.32;1.80;;;;;;;-8.70;72.95;99285.91;4902071;29;20070;-69
2024/01/18 11:06:09;;;;;;;5.28;2.08;;;;;;;-8.20;73.94;99323.34;4909818;29;20511;-68
2024/01/18 11:08:37;;;;;;;3.45;1.95;;;;;;;-7.89;73.59;99312.47;4914186;29;21018;-66
2024/01/18 11:11:04;;;;;;;5.18;2.55;;;;;;;-7.76;74.03;99311.53;4913166;29;20071;-66
2024/01/18 11:13:35;;;;;;;4.82;2.08;;;;;;;-7.87;72.98;99300.81;4918171;29;20112;-69
2024/01/18 11:16:01;;;;;;;6.45;2.30;;;;;;;-8.35;72.52;99267.78;4913326;29;20052;-66
2024/01/18 11:18:27;;;;;;;4.05;1.73;;;;;;;-8.19;73.03;99279.63;4911990;29;20079;-67
2024/01/18 11:21:12;;;;;;;5.03;1.98;;;;;;;-8.22;73.13;99256.72;4917818;29;20056;-70
2024/01/18 11:24:08;;;;;;;4.13;1.67;;;;;;;-8.29;73.07;99277.38;4908078;29;20138;-63
2024/01/18 11:26:51;;;;;;;3.22;1.40;;;;;;;-8.29;72.72;99277.38;4909700;29;20138;-67
2024/01/18 11:29:24;;;;;;;6.15;2.13;;;;;;;-8.36;72.65;99257.59;4919100;29;20044;-65
2024/01/18 11:31:51;;;;;;;3.13;2.00;;;;;;;-8.50;73.23;99239.16;4920661;29;20100;-63
2024/01/18 11:34:34;;;;;;;3.38;1.42;;;;;;;-8.51;72.26;99257.59;4910445;29;20043;-66
2024/01/18 11:37:13;;;;;;;4.18;1.30;;;;;;;-8.70;72.64;99222.84;4909599;29;20102;-65
2024/01/18 11:39:48;;;;;;;3.13;1.20;;;;;;;-8.66;72.23;99228.19;4915461;29;20128;-68
2024/01/18 11:42:24;;;;;;;3.85;1.67;;;;;;;-8.66;73.24;99219.72;4922478;29;20051;-65
2024/01/18 11:45:04;;;;;;;2.78;1.38;;;;;;;-8.76;72.45;99174.56;4939759;29;20048;-66